Time;durP1;ratioP1;P1;durP2;ratioP2;P2;SDS_P1;SDS_P2;PMS_P1;PMS_P2;Temp;Humidity;BMP_temperature;BMP_pressure;BME280_temperature;BME280_humidity;BME280_pressure;Samples;Min_cycle;Max_cycle;Signal;HPM_P1;HPM_P2
2023/07/12 00:01:36;;;;;;;1.83;0.90;;;20.20;99.90;;;;;;5136981;27;20043;-47
2023/07/12 00:04:02;;;;;;;2.08;0.85;;;20.20;99.90;;;;;;5136523;27;20116;-48
2023/07/12 00:06:38;;;;;;;1.80;0.80;;;20.20;99.90;;;;;;5136756;27;20108;-47
2023/07/12 00:09:12;;;;;;;2.53;1.05;;;20.20;99.90;;;;;;5136930;27;20405;-47
2023/07/12 00:11:38;;;;;;;2.17;1.00;;;20.20;99.90;;;;;;5136797;27;20390;-48
2023/07/12 00:14:04;;;;;;;2.35;0.85;;;20.20;99.90;;;;;;5136599;27;20546;-48
2023/07/12 00:16:38;;;;;;;2.13;0.90;;;20.10;99.90;;;;;;5136507;27;20043;-47
2023/07/12 00:19:04;;;;;;;2.05;1.10;;;20.10;99.90;;;;;;5136450;27;20123;-47
2023/07/12 00:21:31;;;;;;;1.65;0.73;;;20.10;99.90;;;;;;5136490;27;20047;-47
2023/07/12 00:24:00;;;;;;;1.92;0.88;;;20.10;99.90;;;;;;5118813;27;20055;-47
2023/07/12 00:26:36;;;;;;;3.20;0.90;;;20.10;99.90;;;;;;5136419;27;20039;-47
2023/07/12 00:29:04;;;;;;;3.33;0.88;;;20.10;99.90;;;;;;5136318;27;20548;-47
2023/07/12 00:31:30;;;;;;;3.20;1.20;;;20.00;99.90;;;;;;5136269;27;20054;-47
2023/07/12 00:33:56;;;;;;;1.52;0.63;;;20.00;99.90;;;;;;5136155;27;20050;-48
2023/07/12 00:36:26;;;;;;;3.13;1.00;;;20.00;99.90;;;;;;5136476;27;20047;-47
2023/07/12 00:38:52;;;;;;;1.88;0.90;;;20.00;99.90;;;;;;5136165;27;20039;-47
2023/07/12 00:41:46;;;;;;;3.97;1.10;;;20.00;99.90;;;;;;5136159;27;20058;-48
2023/07/12 00:44:23;;;;;;;1.73;0.60;;;20.00;99.90;;;;;;5135323;27;20083;-48
2023/07/12 00:46:51;;;;;;;;;;;19.90;99.90;;;;;;5118596;27;20122;-48
2023/07/12 00:49:17;;;;;;;4.40;1.10;;;19.90;99.90;;;;;;5135759;27;20496;-47
2023/07/12 00:51:59;;;;;;;2.47;0.82;;;19.90;99.90;;;;;;5135911;27;20126;-47
2023/07/12 00:54:46;;;;;;;2.75;0.93;;;19.90;99.90;;;;;;5117702;27;20511;-47
2023/07/12 00:57:13;;;;;;;3.67;1.17;;;19.80;99.90;;;;;;5136033;27;20047;-47
2023/07/12 00:59:39;;;;;;;2.55;1.30;;;19.90;99.90;;;;;;5135789;27;20079;-48
2023/07/12 01:02:05;;;;;;;1.63;0.77;;;19.80;99.90;;;;;;5135754;27;20046;-48
2023/07/12 01:04:45;;;;;;;2.50;0.95;;;19.80;99.90;;;;;;5135571;27;20384;-47
2023/07/12 01:07:12;;;;;;;3.42;0.90;;;19.80;99.90;;;;;;5135520;27;20047;-48
2023/07/12 01:09:38;;;;;;;3.67;0.85;;;19.80;99.90;;;;;;5135514;27;20039;-48
2023/07/12 01:12:04;;;;;;;2.88;0.90;;;19.80;99.90;;;;;;5135762;27;20050;-48
2023/07/12 01:14:30;;;;;;;2.85;1.05;;;19.70;99.90;;;;;;5117233;27;20047;-49
2023/07/12 01:17:05;;;;;;;2.08;1.08;;;19.80;99.90;;;;;;5117163;27;20046;-48
2023/07/12 01:19:31;;;;;;;3.88;1.17;;;19.70;99.90;;;;;;5135282;27;20039;-49
2023/07/12 01:21:58;;;;;;;2.92;1.00;;;19.70;99.90;;;;;;5117008;27;20047;-48
2023/07/12 01:24:26;;;;;;;2.35;1.05;;;19.70;99.90;;;;;;5117217;27;20468;-47
2023/07/12 01:26:57;;;;;;;3.17;0.88;;;19.70;99.90;;;;;;5135218;27;20433;-48
2023/07/12 01:29:24;;;;;;;2.97;1.20;;;19.70;99.90;;;;;;5135174;27;20479;-48
2023/07/12 01:31:51;;;;;;;4.88;1.23;;;19.70;99.90;;;;;;5134962;27;20053;-48
2023/07/12 01:34:17;;;;;;;3.33;0.80;;;19.60;99.90;;;;;;5134847;27;20078;-48
2023/07/12 01:36:44;;;;;;;2.67;1.10;;;19.60;99.90;;;;;;5135357;27;20047;-48
2023/07/12 01:39:10;;;;;;;3.03;1.10;;;19.60;99.90;;;;;;5116699;27;20446;-50
2023/07/12 01:41:36;;;;;;;2.38;0.88;;;19.60;99.90;;;;;;5135269;27;20043;-49
2023/07/12 01:44:01;;;;;;;2.55;0.90;;;19.60;99.90;;;;;;5134958;27;20039;-50
2023/07/12 01:46:27;;;;;;;3.25;1.15;;;19.50;99.90;;;;;;5134768;27;20091;-48
2023/07/12 01:48:53;;;;;;;3.17;0.90;;;19.50;99.90;;;;;;5134657;27;20043;-50
2023/07/12 01:51:20;;;;;;;3.75;1.02;;;19.50;99.90;;;;;;5134933;27;20496;-49
2023/07/12 01:53:46;;;;;;;4.95;1.30;;;19.50;99.90;;;;;;5134799;27;20051;-51
2023/07/12 01:56:12;;;;;;;;;;;19.50;99.90;;;;;;5134323;27;20078;-52
2023/07/12 01:58:38;;;;;;;3.35;1.15;;;19.50;99.90;;;;;;5116720;27;20375;-52
2023/07/12 02:01:04;;;;;;;3.05;1.20;;;19.40;99.90;;;;;;5134719;27;20082;-50
2023/07/12 02:03:29;;;;;;;3.33;0.93;;;19.40;99.90;;;;;;5134464;27;20049;-54
2023/07/12 02:05:56;;;;;;;2.65;0.85;;;19.40;99.90;;;;;;5134803;27;20054;-53
2023/07/12 02:08:22;;;;;;;3.25;1.30;;;19.40;99.90;;;;;;5116614;27;20045;-55
2023/07/12 02:10:48;;;;;;;3.15;0.98;;;19.30;99.90;;;;;;5099501;28;20048;-55
2023/07/12 02:13:14;;;;;;;4.25;1.02;;;19.30;99.90;;;;;;5134478;28;20047;-54
2023/07/12 02:15:40;;;;;;;2.78;1.05;;;19.20;99.90;;;;;;5134692;28;20046;-55
2023/07/12 02:18:06;;;;;;;2.30;1.00;;;19.20;99.90;;;;;;5116248;28;20387;-55
2023/07/12 02:20:32;;;;;;;2.67;1.20;;;19.20;99.90;;;;;;5134519;28;20036;-55
2023/07/12 02:22:58;;;;;;;2.67;1.15;;;19.20;99.90;;;;;;5134558;28;20054;-55
2023/07/12 02:25:24;;;;;;;3.03;1.45;;;19.20;99.90;;;;;;5134550;28;20051;-56
2023/07/12 02:27:50;;;;;;;5.25;1.63;;;19.10;99.90;;;;;;5134525;28;20062;-56
2023/07/12 02:30:20;;;;;;;5.10;1.40;;;19.10;99.90;;;;;;5134298;28;20043;-56
2023/07/12 02:32:46;;;;;;;3.40;1.23;;;19.00;99.90;;;;;;5134270;28;20439;-56
2023/07/12 02:35:13;;;;;;;4.75;1.40;;;19.00;99.90;;;;;;5134427;28;20047;-56
2023/07/12 02:37:38;;;;;;;;;;;19.00;99.90;;;;;;5134813;28;20054;-57
2023/07/12 02:40:06;;;;;;;7.28;1.30;;;19.00;99.90;;;;;;5134443;28;19920;-57
2023/07/12 02:42:32;;;;;;;3.65;1.60;;;18.90;99.90;;;;;;5134309;28;20083;-56
2023/07/12 02:44:58;;;;;;;4.00;1.67;;;18.90;99.90;;;;;;5134290;28;20159;-56
2023/07/12 02:47:23;;;;;;;4.05;1.45;;;18.90;99.90;;;;;;5115750;28;20044;-56
2023/07/12 02:49:49;;;;;;;4.82;1.67;;;18.90;99.90;;;;;;5134571;28;20472;-56
2023/07/12 02:52:15;;;;;;;5.82;1.90;;;18.90;99.90;;;;;;5134255;28;20061;-55
2023/07/12 02:54:41;;;;;;;5.68;1.77;;;18.80;99.90;;;;;;5134243;28;20127;-56
2023/07/12 02:57:08;;;;;;;5.25;1.60;;;18.80;99.90;;;;;;5134225;28;20096;-55
2023/07/12 02:59:34;;;;;;;3.78;1.50;;;18.80;99.90;;;;;;5133869;28;20086;-56
2023/07/12 03:02:00;;;;;;;5.40;1.48;;;18.80;99.90;;;;;;5133981;28;20083;-55
2023/07/12 03:04:25;;;;;;;3.28;1.42;;;18.80;99.90;;;;;;5134060;28;20051;-52
2023/07/12 03:06:51;;;;;;;6.03;1.80;;;18.80;99.90;;;;;;5116104;27;20130;-50
2023/07/12 03:09:17;;;;;;;6.32;1.77;;;18.70;99.90;;;;;;5137818;27;20050;-49
2023/07/12 03:11:47;;;;;;;3.03;1.40;;;18.70;99.90;;;;;;5137811;27;20050;-51
2023/07/12 03:14:17;;;;;;;4.63;1.55;;;18.60;99.90;;;;;;5137664;27;20050;-54
2023/07/12 03:16:44;;;;;;;4.13;1.60;;;18.70;99.90;;;;;;5137914;27;20054;-48
2023/07/12 03:19:10;;;;;;;7.88;2.25;;;18.60;99.90;;;;;;5137712;27;20054;-47
2023/07/12 03:21:35;;;;;;;3.35;1.40;;;18.60;99.90;;;;;;5137731;27;20050;-49
2023/07/12 03:24:01;;;;;;;4.13;1.60;;;18.50;99.90;;;;;;5137693;27;20043;-54
2023/07/12 03:26:27;;;;;;;6.70;1.67;;;18.60;99.90;;;;;;5137708;27;20058;-52
2023/07/12 03:28:53;;;;;;;7.30;1.60;;;18.50;99.90;;;;;;5137343;27;20043;-49
2023/07/12 03:31:19;;;;;;;3.88;1.38;;;18.50;99.90;;;;;;5137615;27;20047;-53
2023/07/12 03:33:45;;;;;;;5.10;1.40;;;18.50;99.90;;;;;;5137553;27;20058;-53
2023/07/12 03:36:12;;;;;;;4.40;1.50;;;18.50;99.90;;;;;;5137473;27;20088;-51
2023/07/12 03:38:39;;;;;;;5.57;1.48;;;18.50;99.90;;;;;;5137365;27;20047;-52
2023/07/12 03:41:09;;;;;;;4.68;1.60;;;18.50;99.90;;;;;;5137278;27;20050;-53
2023/07/12 03:43:35;;;;;;;3.95;1.60;;;18.50;99.90;;;;;;5137002;27;20043;-53
2023/07/12 03:46:02;;;;;;;;;;;18.50;99.90;;;;;;5137692;27;20129;-54
2023/07/12 03:48:28;;;;;;;4.60;1.67;;;18.50;99.90;;;;;;5137404;27;20010;-54
2023/07/12 03:50:57;;;;;;;5.07;1.50;;;18.40;99.90;;;;;;5137128;27;20046;-54
2023/07/12 03:53:27;;;;;;;5.32;1.80;;;18.40;99.90;;;;;;5137172;27;20125;-55
2023/07/12 03:55:56;;;;;;;4.95;1.50;;;18.40;99.90;;;;;;5136932;27;20088;-54
2023/07/12 03:58:24;;;;;;;6.88;1.45;;;18.40;99.90;;;;;;5136860;27;20422;-55
2023/07/12 04:00:50;;;;;;;6.50;1.48;;;18.40;99.90;;;;;;5137012;27;20047;-53
2023/07/12 04:03:17;;;;;;;6.07;1.40;;;18.40;99.90;;;;;;5118571;27;20039;-54
2023/07/12 04:05:44;;;;;;;5.40;1.30;;;18.40;99.90;;;;;;5136542;27;20094;-56
2023/07/12 04:08:12;;;;;;;5.93;1.50;;;18.40;99.90;;;;;;5136808;27;20440;-56
2023/07/12 04:10:38;;;;;;;3.15;1.40;;;18.40;99.90;;;;;;5118326;27;20075;-56
2023/07/12 04:13:04;;;;;;;5.05;1.40;;;18.40;99.90;;;;;;5136561;27;20076;-56
2023/07/12 04:15:30;;;;;;;4.50;1.42;;;18.40;99.90;;;;;;5136772;27;20067;-56
2023/07/12 04:17:55;;;;;;;4.75;1.70;;;18.30;99.90;;;;;;5136631;27;20480;-56
2023/07/12 04:20:21;;;;;;;4.90;1.52;;;18.40;99.90;;;;;;5135593;27;20046;-56
2023/07/12 04:22:50;;;;;;;4.82;1.40;;;18.40;99.90;;;;;;5136526;27;20046;-56
2023/07/12 04:25:16;;;;;;;5.35;1.42;;;18.40;99.90;;;;;;5136342;27;20046;-56
2023/07/12 04:27:42;;;;;;;3.05;1.10;;;18.40;99.90;;;;;;5136435;27;20130;-54
2023/07/12 04:30:12;;;;;;;6.10;1.90;;;18.40;99.90;;;;;;5136386;27;20039;-57
2023/07/12 04:32:37;;;;;;;4.82;1.50;;;18.40;99.90;;;;;;5118015;27;20078;-56
2023/07/12 04:35:03;;;;;;;5.68;1.90;;;18.40;99.90;;;;;;5136121;27;20111;-57
2023/07/12 04:37:30;;;;;;;4.00;1.67;;;18.30;99.90;;;;;;5136185;27;20050;-56
2023/07/12 04:39:55;;;;;;;;;;;18.40;99.90;;;;;;5118277;27;20133;-56
2023/07/12 04:42:21;;;;;;;5.05;1.40;;;18.40;99.90;;;;;;5118119;27;20312;-55
2023/07/12 04:44:47;;;;;;;7.47;1.50;;;18.40;99.90;;;;;;5135993;27;20047;-56
2023/07/12 04:47:15;;;;;;;5.63;1.80;;;18.40;99.90;;;;;;5136223;27;20067;-56
2023/07/12 04:49:43;;;;;;;6.32;1.70;;;18.30;99.90;;;;;;5135914;27;20039;-56
2023/07/12 04:52:12;;;;;;;7.05;1.60;;;18.30;99.90;;;;;;5135827;27;20103;-57
2023/07/12 04:54:42;;;;;;;5.05;1.30;;;18.30;99.90;;;;;;5135739;27;20093;-56
2023/07/12 04:57:09;;;;;;;5.50;1.83;;;18.30;99.90;;;;;;5135862;27;20050;-56
2023/07/12 04:59:35;;;;;;;6.03;1.50;;;18.30;99.90;;;;;;5135918;27;20074;-56
2023/07/12 05:02:01;;;;;;;7.15;1.90;;;18.30;99.90;;;;;;5135747;27;20046;-55
2023/07/12 05:04:27;;;;;;;;;;;18.20;99.90;;;;;;5117686;27;20086;-57
2023/07/12 05:06:53;;;;;;;4.07;1.50;;;18.30;99.90;;;;;;5135473;27;19973;-57
2023/07/12 05:09:20;;;;;;;7.70;2.90;;;18.30;99.90;;;;;;5135436;27;20074;-57
2023/07/12 05:11:46;;;;;;;4.65;1.60;;;18.30;99.90;;;;;;5135342;27;20554;-57
2023/07/12 05:14:12;;;;;;;7.75;1.98;;;18.30;99.90;;;;;;5135461;27;20055;-57
2023/07/12 05:16:38;;;;;;;3.67;1.40;;;18.30;99.90;;;;;;5135485;27;20177;-57
2023/07/12 05:19:04;;;;;;;8.02;2.30;;;18.30;99.90;;;;;;5135534;27;20476;-57
2023/07/12 05:21:29;;;;;;;6.30;1.70;;;18.30;99.90;;;;;;5135397;27;20050;-57
2023/07/12 05:23:55;;;;;;;7.15;2.13;;;18.30;99.90;;;;;;5135191;27;20403;-57
2023/07/12 05:26:21;;;;;;;5.80;1.80;;;18.40;99.90;;;;;;5135317;27;20049;-57
2023/07/12 05:28:47;;;;;;;7.32;2.15;;;18.40;99.90;;;;;;5135482;27;20058;-56
2023/07/12 05:31:13;;;;;;;6.38;2.10;;;18.50;99.90;;;;;;5134917;27;20536;-53
2023/07/12 05:33:42;;;;;;;6.50;2.22;;;18.50;99.90;;;;;;5135126;27;20435;-50
2023/07/12 05:36:08;;;;;;;5.03;2.30;;;18.50;99.90;;;;;;5134999;27;20047;-53
2023/07/12 05:38:34;;;;;;;8.00;2.65;;;18.50;99.90;;;;;;5134732;27;20046;-49
2023/07/12 05:41:00;;;;;;;7.53;2.08;;;18.60;99.90;;;;;;5135241;27;20096;-50
2023/07/12 05:43:26;;;;;;;3.40;1.42;;;18.60;99.90;;;;;;5135042;27;20130;-51
2023/07/12 05:45:52;;;;;;;6.38;2.28;;;18.60;99.90;;;;;;5134775;27;20039;-49
2023/07/12 05:48:18;;;;;;;6.47;2.08;;;18.60;99.90;;;;;;5134979;27;20122;-51
2023/07/12 05:50:49;;;;;;;5.65;2.00;;;18.70;99.90;;;;;;5116250;27;20475;-48
2023/07/12 05:53:14;;;;;;;5.20;2.15;;;18.70;99.90;;;;;;5134893;27;20480;-53
2023/07/12 05:55:40;;;;;;;8.43;1.88;;;18.70;99.90;;;;;;5134595;27;20058;-50
2023/07/12 05:58:06;;;;;;;7.10;1.85;;;18.70;99.90;;;;;;5134768;27;20096;-50
2023/07/12 06:00:31;;;;;;;6.05;1.80;;;18.80;99.90;;;;;;5116562;27;20099;-48
2023/07/12 06:02:57;;;;;;;6.68;2.40;;;18.80;99.90;;;;;;5134699;27;20459;-48
2023/07/12 06:05:23;;;;;;;6.40;2.05;;;18.80;99.90;;;;;;5134633;27;20104;-50
2023/07/12 06:07:48;;;;;;;6.47;2.10;;;18.80;99.90;;;;;;5116789;27;20049;-49
2023/07/12 06:10:15;;;;;;;13.50;3.20;;;18.70;99.90;;;;;;5134578;27;20042;-49
2023/07/12 06:12:41;;;;;;;6.97;1.95;;;18.70;99.90;;;;;;5134531;27;20057;-47
2023/07/12 06:15:08;;;;;;;8.27;1.88;;;18.60;99.90;;;;;;5134671;28;20394;-48
2023/07/12 06:17:33;;;;;;;3.97;1.83;;;18.60;99.90;;;;;;5134570;28;20050;-49
2023/07/12 06:19:59;;;;;;;5.85;1.95;;;18.60;99.90;;;;;;5134408;28;20421;-51
2023/07/12 06:22:25;;;;;;;5.85;2.10;;;18.60;99.90;;;;;;5134501;28;20403;-46
2023/07/12 06:24:51;;;;;;;;;;;18.60;99.90;;;;;;5134900;28;20097;-48
2023/07/12 06:27:17;;;;;;;4.80;2.30;;;18.60;99.90;;;;;;5134390;28;20360;-46
2023/07/12 06:29:45;;;;;;;6.03;2.20;;;18.70;99.90;;;;;;5134266;28;20039;-47
2023/07/12 06:32:12;;;;;;;7.38;1.88;;;18.60;99.90;;;;;;5134248;28;20122;-48
2023/07/12 06:34:38;;;;;;;8.52;2.40;;;18.70;99.90;;;;;;5134031;28;20191;-46
2023/07/12 06:37:04;;;;;;;6.82;2.33;;;18.70;99.90;;;;;;5134378;28;20050;-48
2023/07/12 06:39:30;;;;;;;6.32;2.08;;;18.80;99.90;;;;;;5134308;28;20039;-47
2023/07/12 06:41:56;;;;;;;5.68;2.08;;;18.90;99.90;;;;;;5134513;27;20054;-47
2023/07/12 06:44:21;;;;;;;8.27;2.33;;;19.00;99.90;;;;;;5138317;27;20039;-48
2023/07/12 06:46:47;;;;;;;6.88;2.22;;;19.10;99.90;;;;;;5138155;27;20068;-47
2023/07/12 06:49:15;;;;;;;7.70;2.53;;;19.20;99.90;;;;;;5137950;27;20083;-48
2023/07/12 06:51:47;;;;;;;8.13;3.17;;;19.20;99.90;;;;;;5138187;27;20051;-46
2023/07/12 06:54:16;;;;;;;6.88;2.35;;;19.20;99.90;;;;;;5138390;27;20035;-47
2023/07/12 06:56:43;;;;;;;6.10;2.05;;;19.10;99.90;;;;;;5138019;27;20039;-46
2023/07/12 06:59:10;;;;;;;4.65;2.17;;;19.10;99.90;;;;;;5138149;27;20128;-46
2023/07/12 07:01:36;;;;;;;6.63;2.47;;;19.10;99.90;;;;;;5137830;27;20139;-47
2023/07/12 07:04:03;;;;;;;5.93;2.15;;;19.20;99.90;;;;;;5137626;27;20491;-46
2023/07/12 07:06:29;;;;;;;7.47;2.55;;;19.20;99.90;;;;;;5120352;27;20074;-46
2023/07/12 07:08:55;;;;;;;;;;;19.20;99.90;;;;;;5138271;27;20092;-46
2023/07/12 07:11:20;;;;;;;9.68;2.42;;;19.30;99.90;;;;;;5137786;27;19919;-46
2023/07/12 07:13:47;;;;;;;7.82;2.28;;;19.20;99.90;;;;;;5137830;27;20039;-46
2023/07/12 07:16:13;;;;;;;6.57;2.38;;;19.30;99.90;;;;;;5119677;27;20502;-46
2023/07/12 07:18:39;;;;;;;5.18;2.08;;;19.40;99.90;;;;;;5137510;27;20046;-46
2023/07/12 07:21:05;;;;;;;7.68;2.10;;;19.50;99.90;;;;;;5137931;27;20087;-46
2023/07/12 07:23:31;;;;;;;6.70;2.10;;;19.60;99.90;;;;;;5137566;27;20078;-46
2023/07/12 07:26:04;;;;;;;7.30;1.80;;;19.70;99.90;;;;;;5137657;27;20520;-45
2023/07/12 07:28:30;;;;;;;6.15;1.52;;;19.70;99.90;;;;;;5119480;27;20047;-45
2023/07/12 07:30:56;;;;;;;5.95;1.70;;;19.70;99.90;;;;;;5137355;27;20047;-46
2023/07/12 07:33:22;;;;;;;5.63;1.98;;;19.80;99.90;;;;;;5137534;27;20057;-48
2023/07/12 07:35:48;;;;;;;9.38;3.00;;;19.90;99.90;;;;;;5137461;27;20050;-46
2023/07/12 07:38:14;;;;;;;5.63;2.63;;;20.10;99.90;;;;;;5119262;27;20527;-47
2023/07/12 07:40:41;;;;;;;5.78;1.77;;;20.40;99.90;;;;;;5137245;27;20180;-46
2023/07/12 07:43:08;;;;;;;3.65;1.40;;;20.50;99.90;;;;;;5137166;27;20050;-47
2023/07/12 07:45:34;;;;;;;6.75;1.35;;;20.40;99.90;;;;;;5118836;27;20506;-46
2023/07/12 07:47:59;;;;;;;3.85;1.42;;;20.30;99.90;;;;;;5137224;27;20078;-46
2023/07/12 07:50:26;;;;;;;5.25;1.90;;;20.30;99.90;;;;;;5137160;27;20047;-46
2023/07/12 07:52:53;;;;;;;7.95;1.85;;;20.10;99.90;;;;;;5119005;27;20051;-46
2023/07/12 07:55:22;;;;;;;6.25;1.70;;;20.00;99.90;;;;;;5135548;27;20364;-47
2023/07/12 07:57:48;;;;;;;5.78;1.60;;;20.00;99.90;;;;;;5118844;27;20079;-45
2023/07/12 08:00:15;;;;;;;5.53;1.50;;;19.90;99.90;;;;;;5136814;27;20131;-45
2023/07/12 08:02:42;;;;;;;7.85;1.58;;;19.90;99.90;;;;;;5136965;27;20054;-45
2023/07/12 08:05:11;;;;;;;5.15;1.35;;;19.90;99.90;;;;;;5118367;27;20400;-45
2023/07/12 08:07:47;;;;;;;4.60;1.92;;;19.90;99.90;;;;;;5136805;27;20130;-45
2023/07/12 08:10:17;;;;;;;7.35;1.30;;;19.90;99.90;;;;;;5136905;27;20046;-45
2023/07/12 08:12:43;;;;;;;5.20;1.98;;;19.80;99.90;;;;;;5136682;27;20066;-46
2023/07/12 08:15:10;;;;;;;5.22;1.30;;;19.70;99.90;;;;;;5118423;27;20050;-46
2023/07/12 08:17:36;;;;;;;8.13;1.45;;;19.60;99.90;;;;;;5136654;27;20047;-48
2023/07/12 08:20:04;;;;;;;3.13;1.42;;;19.60;99.90;;;;;;5136560;27;20396;-48
2023/07/12 08:22:31;;;;;;;4.43;1.75;;;19.50;99.90;;;;;;5136541;27;20047;-47
2023/07/12 08:24:56;;;;;;;5.85;1.77;;;19.40;99.90;;;;;;5136350;27;20055;-52
2023/07/12 08:27:22;;;;;;;6.68;1.50;;;19.40;99.90;;;;;;5136377;27;20054;-52
2023/07/12 08:29:48;;;;;;;3.58;1.50;;;19.30;99.90;;;;;;5136315;27;20391;-49
2023/07/12 08:32:14;;;;;;;5.78;1.50;;;19.30;99.90;;;;;;5118075;27;20091;-50
2023/07/12 08:34:40;;;;;;;;;;;19.30;99.90;;;;;;5136945;27;20075;-53
2023/07/12 08:37:06;;;;;;;5.15;1.33;;;19.30;99.90;;;;;;5136323;27;20331;-52
2023/07/12 08:39:32;;;;;;;3.75;1.10;;;19.20;99.90;;;;;;5136216;27;20434;-54
2023/07/12 08:42:04;;;;;;;2.10;0.90;;;19.20;99.90;;;;;;5117784;27;20039;-50
2023/07/12 08:44:32;;;;;;;4.20;1.00;;;19.10;99.90;;;;;;5136120;27;20511;-51
2023/07/12 08:46:59;;;;;;;2.80;0.80;;;19.10;99.90;;;;;;5135967;27;20176;-48
2023/07/12 08:49:27;;;;;;;5.25;1.10;;;19.10;99.90;;;;;;5135803;27;20034;-50
2023/07/12 08:51:59;;;;;;;2.97;0.90;;;19.10;99.90;;;;;;5117862;27;20047;-48
2023/07/12 08:54:33;;;;;;;6.30;1.10;;;19.10;99.90;;;;;;5135998;27;20116;-53
2023/07/12 08:57:20;;;;;;;3.78;1.02;;;19.20;99.90;;;;;;5136157;27;20046;-50
2023/07/12 09:00:00;;;;;;;3.65;1.10;;;19.20;99.90;;;;;;5135715;27;20558;-54
2023/07/12 09:02:26;;;;;;;3.42;0.90;;;19.20;99.90;;;;;;5135705;27;20046;-50
2023/07/12 09:04:57;;;;;;;6.00;1.48;;;19.20;99.90;;;;;;5135148;27;20480;-48
2023/07/12 09:07:28;;;;;;;5.65;1.38;;;19.30;99.90;;;;;;5135598;27;20477;-47
2023/07/12 09:09:56;;;;;;;7.22;1.90;;;19.30;99.90;;;;;;5135435;27;20035;-53
2023/07/12 09:12:30;;;;;;;5.35;1.73;;;19.30;99.90;;;;;;5135387;27;20035;-49
2023/07/12 09:15:10;;;;;;;2.65;1.23;;;19.30;99.90;;;;;;5135285;27;20135;-48
2023/07/12 09:17:42;;;;;;;6.15;1.70;;;19.40;99.90;;;;;;5100389;27;20090;-49
2023/07/12 09:20:29;;;;;;;5.88;1.50;;;19.40;99.90;;;;;;5135163;27;20493;-47
2023/07/12 09:22:56;;;;;;;5.65;1.40;;;19.50;99.90;;;;;;5135278;27;20441;-50
2023/07/12 09:25:34;;;;;;;6.70;1.50;;;19.50;99.90;;;;;;5135224;27;20115;-46
2023/07/12 09:28:01;;;;;;;5.75;1.45;;;19.50;99.90;;;;;;5135364;27;20073;-51
2023/07/12 09:30:27;;;;;;;;;;;19.50;99.90;;;;;;5135592;27;20089;-47
2023/07/12 09:32:57;;;;;;;7.53;1.60;;;19.60;99.90;;;;;;5135121;27;20017;-36
2023/07/12 09:35:36;;;;;;;5.55;1.20;;;19.70;99.90;;;;;;5135067;27;20076;-46
2023/07/12 09:38:08;;;;;;;2.67;0.85;;;19.80;99.90;;;;;;5135090;27;20042;-47
2023/07/12 09:40:41;;;;;;;4.70;1.00;;;19.90;99.90;;;;;;5135352;27;20066;-46
2023/07/12 09:43:36;;;;;;;4.32;1.10;;;19.90;99.90;;;;;;5135075;27;20053;-46
2023/07/12 09:46:36;;;;;;;2.90;0.98;;;20.00;99.90;;;;;;5133411;27;20055;-46
2023/07/12 09:49:20;;;;;;;2.30;0.80;;;20.00;99.90;;;;;;5134966;27;20130;-46
2023/07/12 09:52:05;;;;;;;4.43;1.00;;;20.00;99.90;;;;;;5134913;27;20110;-46
2023/07/12 09:54:33;;;;;;;3.25;1.20;;;20.00;99.90;;;;;;5134874;27;20070;-45
2023/07/12 09:57:01;;;;;;;4.10;1.10;;;19.90;99.90;;;;;;5134585;27;20046;-45
2023/07/12 09:59:34;;;;;;;4.53;1.17;;;19.90;99.90;;;;;;5134915;27;20131;-45
2023/07/12 10:02:38;;;;;;;4.72;1.02;;;19.90;99.90;;;;;;5135026;27;20047;-47
2023/07/12 10:05:15;;;;;;;3.90;1.27;;;20.10;99.90;;;;;;5131994;27;20102;-46
2023/07/12 10:07:44;;;;;;;5.60;1.33;;;20.20;99.90;;;;;;5135249;27;20198;-46
2023/07/12 10:10:34;;;;;;;3.20;1.40;;;20.20;99.90;;;;;;5134483;27;20135;-46
2023/07/12 10:13:30;;;;;;;4.13;1.10;;;20.20;99.90;;;;;;5134668;27;20072;-45
2023/07/12 10:15:58;;;;;;;4.55;0.95;;;20.30;99.90;;;;;;5122998;28;20513;-45
2023/07/12 10:18:27;;;;;;;1.50;0.65;;;20.30;99.90;;;;;;5133632;27;20043;-46
2023/07/12 10:20:54;;;;;;;1.77;0.80;;;20.30;99.90;;;;;;5099431;28;20076;-46
2023/07/12 10:23:23;;;;;;;3.90;1.00;;;20.40;99.90;;;;;;5134414;28;20054;-45
2023/07/12 10:25:55;;;;;;;2.97;0.88;;;20.50;99.90;;;;;;5134466;28;20086;-45
2023/07/12 10:28:37;;;;;;;3.53;1.00;;;20.70;99.90;;;;;;5116297;28;20104;-45
2023/07/12 10:31:11;;;;;;;2.75;1.30;;;20.90;99.90;;;;;;5134768;28;20050;-45
2023/07/12 10:33:42;;;;;;;3.67;1.13;;;21.00;99.90;;;;;;5116899;28;20035;-45
2023/07/12 10:36:15;;;;;;;4.47;1.05;;;20.90;99.90;;;;;;5134550;28;20043;-46
2023/07/12 10:38:41;;;;;;;3.95;1.27;;;20.90;99.90;;;;;;5134272;28;20057;-46
2023/07/12 10:41:18;;;;;;;3.53;1.02;;;20.90;99.90;;;;;;5134065;28;20542;-46
2023/07/12 10:44:04;;;;;;;2.58;0.70;;;21.00;99.90;;;;;;5116419;28;20098;-46
2023/07/12 10:46:48;;;;;;;2.13;0.70;;;21.30;99.90;;;;;;5134390;28;20039;-46
2023/07/12 10:49:19;;;;;;;1.88;0.80;;;21.60;99.90;;;;;;5134227;28;20077;-45
2023/07/12 10:52:11;;;;;;;3.13;0.98;;;21.80;99.90;;;;;;5134263;28;20475;-45
2023/07/12 10:54:37;;;;;;;2.25;0.80;;;21.90;99.90;;;;;;5099145;28;20070;-46
2023/07/12 10:57:24;;;;;;;1.77;0.90;;;21.90;99.90;;;;;;5134104;28;20484;-46
2023/07/12 11:00:00;;;;;;;5.03;1.00;;;21.80;99.90;;;;;;5134252;28;20041;-46
2023/07/12 11:02:32;;;;;;;2.20;1.00;;;22.00;99.90;;;;;;5134213;28;20043;-46
2023/07/12 11:04:59;;;;;;;2.17;0.90;;;22.20;99.90;;;;;;5134041;28;20192;-46
2023/07/12 11:07:29;;;;;;;2.55;0.73;;;22.20;99.90;;;;;;5134063;28;20047;-45
2023/07/12 11:09:54;;;;;;;1.67;0.68;;;22.20;99.90;;;;;;5133767;28;20039;-45
2023/07/12 11:12:26;;;;;;;2.20;0.80;;;22.10;99.90;;;;;;5115978;28;20368;-45
2023/07/12 11:15:04;;;;;;;2.38;0.80;;;21.90;99.90;;;;;;5134070;28;20465;-45
2023/07/12 11:17:51;;;;;;;3.15;0.77;;;21.90;99.90;;;;;;5134288;28;20157;-45
2023/07/12 11:20:30;;;;;;;2.25;0.52;;;22.00;99.90;;;;;;5115798;28;20055;-47
2023/07/12 11:23:07;;;;;;;2.55;0.55;;;22.10;99.90;;;;;;5134086;28;20047;-47
2023/07/12 11:25:44;;;;;;;2.30;0.68;;;22.30;99.90;;;;;;5134462;28;20083;-46
2023/07/12 11:28:12;;;;;;;2.45;0.60;;;22.30;99.90;;;;;;5134448;27;20051;-47
2023/07/12 11:30:41;;;;;;;1.30;0.60;;;22.20;99.90;;;;;;5137406;27;20483;-46
2023/07/12 11:33:07;;;;;;;3.15;0.70;;;22.20;99.90;;;;;;5119456;27;20772;-45
2023/07/12 11:35:58;;;;;;;4.68;2.50;;;22.50;99.90;;;;;;5137476;27;20160;-45
2023/07/12 11:38:28;;;;;;;2.88;0.93;;;22.60;99.90;;;;;;5137411;27;20176;-46
2023/07/12 11:40:57;;;;;;;2.30;0.50;;;22.50;99.90;;;;;;5137329;27;20427;-46
2023/07/12 11:43:22;;;;;;;1.58;0.50;;;22.40;99.90;;;;;;5137266;27;20507;-45
2023/07/12 11:45:53;;;;;;;1.60;0.50;;;22.20;99.90;;;;;;5137332;27;20135;-45
2023/07/12 11:48:19;;;;;;;2.25;0.60;;;22.10;99.90;;;;;;5137234;27;20043;-45
2023/07/12 11:50:49;;;;;;;1.60;0.50;;;22.10;99.90;;;;;;5137063;27;20039;-47
2023/07/12 11:53:15;;;;;;;3.47;0.80;;;22.20;99.90;;;;;;5137120;27;20054;-45
2023/07/12 11:55:41;;;;;;;2.58;0.50;;;22.60;99.90;;;;;;5137190;27;20047;-46
2023/07/12 11:58:17;;;;;;;0.95;0.50;;;22.90;99.90;;;;;;5136933;27;20047;-46
2023/07/12 12:00:44;;;;;;;2.15;0.75;;;23.20;99.90;;;;;;5137029;27;20035;-45
2023/07/12 12:03:13;;;;;;;2.40;0.75;;;23.20;99.90;;;;;;5136986;27;20039;-46
2023/07/12 12:05:39;;;;;;;0.93;0.40;;;23.20;99.90;;;;;;5136923;27;20073;-46
2023/07/12 12:08:06;;;;;;;0.98;0.32;;;23.40;99.90;;;;;;5136685;27;20558;-45
2023/07/12 12:10:36;;;;;;;1.33;0.38;;;23.70;99.90;;;;;;5136463;27;20082;-46
2023/07/12 12:13:26;;;;;;;1.05;0.40;;;24.00;99.90;;;;;;5137270;27;20130;-45
2023/07/12 12:16:01;;;;;;;2.50;0.40;;;24.10;99.90;;;;;;5124484;27;20492;-45
2023/07/12 12:18:27;;;;;;;1.48;0.50;;;24.00;99.90;;;;;;5118563;27;20038;-46
2023/07/12 12:21:11;;;;;;;1.55;0.52;;;23.90;99.90;;;;;;5136299;27;20368;-46
2023/07/12 12:23:39;;;;;;;3.75;0.40;;;24.00;99.90;;;;;;5118745;27;20422;-46
2023/07/12 12:26:24;;;;;;;0.52;0.30;;;24.30;99.90;;;;;;5136490;27;20086;-46
2023/07/12 12:28:59;;;;;;;1.08;0.30;;;24.50;99.90;;;;;;5117998;27;20035;-46
2023/07/12 12:31:28;;;;;;;1.17;0.30;;;24.60;99.90;;;;;;5136212;27;20443;-46
2023/07/12 12:34:15;;;;;;;1.65;0.40;;;24.80;99.90;;;;;;5136353;27;20053;-45
2023/07/12 12:37:21;;;;;;;2.00;0.60;;;24.80;99.90;;;;;;5136757;27;20043;-46
2023/07/12 12:40:16;;;;;;;1.23;0.40;;;24.60;99.90;;;;;;5131278;27;20548;-46
2023/07/12 12:43:02;;;;;;;1.55;0.35;;;24.60;99.90;;;;;;5136495;27;20047;-47
2023/07/12 12:45:33;;;;;;;0.35;0.20;;;24.70;99.90;;;;;;5136273;27;20039;-47
2023/07/12 12:47:59;;;;;;;1.00;0.30;;;24.80;99.90;;;;;;5135771;27;20372;-48
2023/07/12 12:50:26;;;;;;;0.73;0.25;;;24.80;99.90;;;;;;5135983;27;20131;-46
2023/07/12 12:52:54;;;;;;;1.25;0.20;;;24.90;99.90;;;;;;5117441;27;20047;-46
2023/07/12 12:55:20;;;;;;;0.63;0.22;;;25.00;99.90;;;;;;5135842;27;20043;-46
2023/07/12 12:57:45;;;;;;;;;;;25.00;99.90;;;;;;5136234;27;20054;-46
2023/07/12 13:00:18;;;;;;;1.90;0.38;;;25.20;99.90;;;;;;5135781;27;19923;-45
2023/07/12 13:02:45;;;;;;;0.50;0.20;;;25.30;99.90;;;;;;5135698;27;20082;-47